createdAt,value
2019-03-12T19:20:26.590Z,8.60
2019-03-12T19:22:56.575Z,7.65
2019-03-12T19:25:29.794Z,7.40
2019-03-12T19:28:00.624Z,7.53
2019-03-12T19:30:31.098Z,7.25
2019-03-12T19:33:12.979Z,7.22
2019-03-12T19:35:42.875Z,6.60
2019-03-12T19:38:12.905Z,6.12
2019-03-12T19:40:48.784Z,5.92
2019-03-12T19:43:19.023Z,5.37
2019-03-12T19:45:49.333Z,5.53
2019-03-12T19:48:19.228Z,5.67
2019-03-12T19:50:49.123Z,5.75
2019-03-12T19:53:19.996Z,5.70
2019-03-12T19:55:59.624Z,4.45
2019-03-12T19:58:29.555Z,4.70
2019-03-12T20:01:00.235Z,4.15
2019-03-12T20:03:30.169Z,4.60
2019-03-12T20:06:00.095Z,4.15
2019-03-12T20:08:30.127Z,3.90
2019-03-12T20:11:22.156Z,3.70
2019-03-12T20:14:14.700Z,3.55
2019-03-12T20:17:09.088Z,3.85
2019-03-12T20:19:53.979Z,3.52
2019-03-12T20:22:59.790Z,3.58
2019-03-12T20:25:54.268Z,3.20
2019-03-12T20:28:49.940Z,3.52
2019-03-12T20:34:16.164Z,3.40
2019-03-12T20:37:22.585Z,3.40
2019-03-12T20:44:54.936Z,2.85
2019-03-12T20:47:44.822Z,2.95
2019-03-12T20:50:52.951Z,2.52
2019-03-12T20:53:35.192Z,2.35
2019-03-12T20:56:29.368Z,3.45
2019-03-12T20:59:37.408Z,3.35
2019-03-12T21:02:11.039Z,2.83
2019-03-12T21:04:59.356Z,2.77
2019-03-12T21:08:00.843Z,2.85
2019-03-12T21:10:52.947Z,2.30
2019-03-12T21:13:38.119Z,2.70
2019-03-12T21:16:11.468Z,2.42
2019-03-12T21:18:56.922Z,2.35
2019-03-12T21:22:03.265Z,2.40
2019-03-12T21:24:33.758Z,2.10
2019-03-12T21:27:19.023Z,2.40
2019-03-12T21:29:51.335Z,2.27
2019-03-12T21:32:21.209Z,2.27
2019-03-12T21:34:51.206Z,2.87
2019-03-12T21:37:21.314Z,2.12
2019-03-12T21:39:55.784Z,2.15
2019-03-12T21:42:25.279Z,2.35
2019-03-12T21:44:54.990Z,1.95
2019-03-12T21:47:25.238Z,1.80
2019-03-12T21:49:55.114Z,1.90
2019-03-12T21:52:25.518Z,1.90
2019-03-12T21:54:55.518Z,1.95
2019-03-12T21:57:25.856Z,2.10
2019-03-12T21:59:56.282Z,1.80
2019-03-12T22:02:26.126Z,2.15
2019-03-12T22:04:56.285Z,1.98
2019-03-12T22:07:26.312Z,2.00
2019-03-12T22:09:56.761Z,1.60
2019-03-12T22:12:26.643Z,1.70
2019-03-12T22:14:56.560Z,1.60
2019-03-12T22:17:26.421Z,1.70
2019-03-12T22:19:56.291Z,1.60
2019-03-12T22:22:27.871Z,1.67
2019-03-12T22:24:57.805Z,2.02
2019-03-12T22:27:28.007Z,2.30
2019-03-12T22:29:58.022Z,1.52
2019-03-12T22:32:28.319Z,2.20
2019-03-12T22:34:58.185Z,1.50
2019-03-12T22:37:29.172Z,1.40
2019-03-12T22:39:59.116Z,1.55
2019-03-12T22:42:29.439Z,1.90
2019-03-12T22:44:59.356Z,1.60
2019-03-12T22:47:29.358Z,1.80
2019-03-12T22:49:59.360Z,1.80
2019-03-12T22:52:29.276Z,1.57
2019-03-12T22:54:59.221Z,1.55
2019-03-12T22:57:29.524Z,1.40
2019-03-12T23:00:21.323Z,1.47
2019-03-12T23:03:09.078Z,1.50
2019-03-12T23:05:57.119Z,1.60
2019-03-12T23:08:45.287Z,1.40
2019-03-12T23:11:17.147Z,1.45
2019-03-12T23:13:47.951Z,1.55
2019-03-12T23:16:19.404Z,1.75
2019-03-12T23:18:49.654Z,1.40
2019-03-12T23:21:19.847Z,1.60
2019-03-12T23:23:49.721Z,1.20
2019-03-12T23:26:19.882Z,1.50
2019-03-12T23:28:49.860Z,1.35
2019-03-12T23:31:20.256Z,1.65
2019-03-12T23:33:50.271Z,1.20
2019-03-12T23:36:20.150Z,1.40
2019-03-12T23:38:50.067Z,1.30
2019-03-12T23:41:19.873Z,1.42
2019-03-12T23:43:50.136Z,1.67
2019-03-12T23:46:20.428Z,1.50
2019-03-12T23:48:50.344Z,1.32
2019-03-12T23:51:20.296Z,1.20
2019-03-12T23:53:50.613Z,1.32
2019-03-12T23:56:20.502Z,1.10
2019-03-12T23:58:50.414Z,1.50
